Time;durP1;ratioP1;P1;durP2;ratioP2;P2;SDS_P1;SDS_P2;PMS_P1;PMS_P2;Temp;Humidity;BMP_temperature;BMP_pressure;BME280_temperature;BME280_humidity;BME280_pressure;Samples;Min_cycle;Max_cycle;Signal;HPM_P1;HPM_P2
2023/01/23 00:02:14;;;;;;;6.32;4.18;;;1.80;92.00;;;;;;5032584;28;20395;-78
2023/01/23 00:04:39;;;;;;;6.68;4.05;;;1.80;92.00;;;;;;5019391;28;20033;-78
2023/01/23 00:07:05;;;;;;;5.97;4.10;;;1.80;92.00;;;;;;5034890;28;20036;-79
2023/01/23 00:09:31;;;;;;;5.82;3.95;;;1.80;92.00;;;;;;5036645;28;20397;-76
2023/01/23 00:11:56;;;;;;;7.50;4.40;;;1.80;92.00;;;;;;5035086;28;20042;-81
2023/01/23 00:14:22;;;;;;;4.85;3.20;;;1.80;92.10;;;;;;5033834;28;20029;-79
2023/01/23 00:16:47;;;;;;;5.20;3.33;;;1.80;92.00;;;;;;5038362;28;20639;-79
2023/01/23 00:19:13;;;;;;;4.97;3.33;;;1.80;92.10;;;;;;5035645;28;20463;-80
2023/01/23 00:21:39;;;;;;;4.80;3.72;;;1.80;92.10;;;;;;5033222;28;20539;-77
2023/01/23 00:24:04;;;;;;;7.03;4.07;;;1.80;92.00;;;;;;5033391;28;20059;-77
2023/01/23 00:26:33;;;;;;;6.60;4.00;;;1.80;92.00;;;;;;5033744;28;20061;-78
2023/01/23 00:28:59;;;;;;;6.93;4.50;;;1.80;92.10;;;;;;5037225;28;20097;-77
2023/01/23 00:31:26;;;;;;;5.03;3.65;;;1.80;92.10;;;;;;5036769;28;20042;-77
2023/01/23 00:33:55;;;;;;;6.05;3.83;;;1.70;92.00;;;;;;5034083;28;20061;-79
2023/01/23 00:36:21;;;;;;;5.55;3.67;;;1.70;92.00;;;;;;5038878;28;20048;-78
2023/01/23 00:38:47;;;;;;;6.32;3.70;;;1.80;92.10;;;;;;5035726;28;20032;-79
2023/01/23 00:41:12;;;;;;;6.95;4.13;;;1.70;92.00;;;;;;5032516;28;20508;-80
2023/01/23 00:43:38;;;;;;;7.45;4.50;;;1.70;92.00;;;;;;5030482;28;20371;-79
2023/01/23 00:46:04;;;;;;;6.32;4.07;;;1.70;92.00;;;;;;5034774;28;20115;-77
2023/01/23 00:48:29;;;;;;;6.43;4.32;;;1.80;92.10;;;;;;5034234;28;20406;-79
2023/01/23 00:50:55;;;;;;;9.57;4.10;;;1.70;92.00;;;;;;5035074;28;20044;-79
2023/01/23 00:53:20;;;;;;;7.28;4.43;;;1.70;92.00;;;;;;5037574;28;20392;-79
2023/01/23 00:55:46;;;;;;;8.10;4.85;;;1.70;92.00;;;;;;5038600;28;20641;-76
2023/01/23 00:58:11;;;;;;;8.55;4.30;;;1.70;92.00;;;;;;5031766;28;20446;-78
2023/01/23 01:00:37;;;;;;;7.95;4.80;;;1.70;92.10;;;;;;5031398;28;20539;-79
2023/01/23 01:03:03;;;;;;;7.22;4.57;;;1.70;92.10;;;;;;5032276;28;20096;-80
2023/01/23 01:05:28;;;;;;;7.03;4.55;;;1.70;92.10;;;;;;5036750;28;20681;-78
2023/01/23 01:07:54;;;;;;;9.30;4.68;;;1.70;92.00;;;;;;5031377;28;20118;-79
2023/01/23 01:10:19;;;;;;;9.27;4.85;;;1.70;92.00;;;;;;5039701;28;20053;-77
2023/01/23 01:12:45;;;;;;;8.52;4.85;;;1.70;92.00;;;;;;5034583;28;20134;-79
2023/01/23 01:15:11;;;;;;;8.48;4.63;;;1.70;92.00;;;;;;5033645;28;20029;-78
2023/01/23 01:17:37;;;;;;;6.88;4.00;;;1.60;92.00;;;;;;5031351;28;20543;-77
2023/01/23 01:20:04;;;;;;;6.10;3.88;;;1.60;92.00;;;;;;5031021;28;20447;-79
2023/01/23 01:22:29;;;;;;;8.43;4.45;;;1.60;92.00;;;;;;5033693;28;20052;-79
2023/01/23 01:24:56;;;;;;;7.68;4.80;;;1.60;92.00;;;;;;5033622;28;20049;-78
2023/01/23 01:27:22;;;;;;;6.95;4.43;;;1.60;92.00;;;;;;5036033;28;20033;-79
2023/01/23 01:29:47;;;;;;;9.27;5.28;;;1.60;92.00;;;;;;5036843;28;20040;-77
2023/01/23 01:32:13;;;;;;;10.23;5.00;;;1.50;92.00;;;;;;5036700;28;20046;-79
2023/01/23 01:34:38;;;;;;;7.50;4.63;;;1.60;92.00;;;;;;5032072;28;20103;-79
2023/01/23 01:37:04;;;;;;;7.25;4.63;;;1.50;92.00;;;;;;5032584;28;20547;-80
2023/01/23 01:39:30;;;;;;;8.30;4.90;;;1.50;92.00;;;;;;5032157;28;20041;-78
2023/01/23 01:41:55;;;;;;;7.47;4.20;;;1.50;92.40;;;;;;5030343;28;20052;-80
2023/01/23 01:44:21;;;;;;;7.32;4.75;;;1.60;92.00;;;;;;5031709;28;20082;-79
2023/01/23 01:46:47;;;;;;;8.30;4.82;;;1.50;92.00;;;;;;5037207;28;20044;-76
2023/01/23 01:49:20;;;;;;;8.55;4.55;;;1.50;92.00;;;;;;5033626;28;20041;-79
2023/01/23 01:52:24;;;;;;;9.30;5.35;;;1.60;92.10;;;;;;5032804;28;20029;-79
2023/01/23 01:55:11;;;;;;;7.75;4.97;;;1.60;92.10;;;;;;4946010;28;20284;-79
2023/01/23 01:57:39;;;;;;;10.23;5.20;;;1.60;92.10;;;;;;4922686;28;20078;-78
2023/01/23 02:00:07;;;;;;;8.23;5.07;;;1.60;92.10;;;;;;4933126;28;20069;-79
2023/01/23 02:02:35;;;;;;;9.40;4.75;;;1.60;92.00;;;;;;4934671;28;20504;-78
2023/01/23 02:05:12;;;;;;;8.55;4.38;;;1.60;92.10;;;;;;4939325;28;20039;-79
2023/01/23 02:07:56;;;;;;;9.23;4.95;;;1.60;92.10;;;;;;4937987;28;20059;-78
2023/01/23 02:10:22;;;;;;;8.15;4.72;;;1.60;92.10;;;;;;4938382;28;20034;-77
2023/01/23 02:12:48;;;;;;;8.35;4.70;;;1.60;92.10;;;;;;4953511;28;20046;-81
2023/01/23 02:15:14;;;;;;;7.57;4.53;;;1.60;92.10;;;;;;4950757;28;20584;-78
2023/01/23 02:17:40;;;;;;;8.13;5.20;;;1.60;92.10;;;;;;4915186;28;20566;-78
2023/01/23 02:20:25;;;;;;;9.85;4.35;;;1.60;92.10;;;;;;4937024;28;20274;-77
2023/01/23 02:23:09;;;;;;;7.22;4.28;;;1.60;92.10;;;;;;4949540;28;20054;-78
2023/01/23 02:25:44;;;;;;;8.05;4.70;;;1.60;92.10;;;;;;4986123;28;20056;-78
2023/01/23 02:28:13;;;;;;;10.60;4.63;;;1.60;92.10;;;;;;5036723;28;20049;-78
2023/01/23 02:30:39;;;;;;;8.52;4.95;;;1.60;92.10;;;;;;5040289;28;20095;-77
2023/01/23 02:33:31;;;;;;;8.10;5.00;;;1.60;92.10;;;;;;5039017;28;20045;-79
2023/01/23 02:35:57;;;;;;;8.05;4.55;;;1.60;92.10;;;;;;5034906;28;20066;-79
2023/01/23 02:38:31;;;;;;;7.60;4.53;;;1.60;92.10;;;;;;5037561;28;20174;-78
2023/01/23 02:40:58;;;;;;;7.78;4.43;;;1.60;92.10;;;;;;5008704;28;20045;-80
2023/01/23 02:43:25;;;;;;;8.57;4.45;;;1.60;92.10;;;;;;5022310;28;20037;-76
2023/01/23 02:45:52;;;;;;;6.22;4.32;;;1.60;92.10;;;;;;5036207;28;20068;-79
2023/01/23 02:48:18;;;;;;;8.60;4.50;;;1.60;92.10;;;;;;5032928;28;20033;-78
2023/01/23 02:50:45;;;;;;;7.05;4.47;;;1.60;92.10;;;;;;5035771;28;20025;-76
2023/01/23 02:53:11;;;;;;;5.82;3.90;;;1.60;92.10;;;;;;5042872;28;20140;-79
2023/01/23 02:55:38;;;;;;;6.60;4.28;;;1.60;92.10;;;;;;5043910;28;20025;-76
2023/01/23 03:00:48;;;;;;;7.78;4.63;;;1.60;92.10;;;;;;5038516;28;20088;-79
2023/01/23 03:03:32;;;;;;;6.57;3.53;;;1.60;92.10;;;;;;5036262;28;20041;-78
2023/01/23 03:06:02;;;;;;;5.88;3.72;;;1.60;92.10;;;;;;5038117;28;20044;-77
2023/01/23 03:08:34;;;;;;;5.68;4.20;;;1.60;92.10;;;;;;5035842;28;20044;-79
2023/01/23 03:11:00;;;;;;;6.65;4.05;;;1.60;92.10;;;;;;5037915;28;20501;-79
2023/01/23 03:13:26;;;;;;;8.18;4.15;;;1.60;92.10;;;;;;5039796;28;20123;-78
2023/01/23 03:15:51;;;;;;;7.30;3.83;;;1.60;92.10;;;;;;5039818;28;20045;-81
2023/01/23 03:18:17;;;;;;;6.50;3.92;;;1.60;92.10;;;;;;5034784;28;20102;-77
2023/01/23 03:20:43;;;;;;;8.23;4.03;;;1.60;92.10;;;;;;5036940;28;20060;-77
2023/01/23 03:23:09;;;;;;;5.95;3.88;;;1.70;92.10;;;;;;5037610;28;20116;-78
2023/01/23 03:25:34;;;;;;;10.52;3.78;;;1.60;92.10;;;;;;5040418;28;20056;-76
2023/01/23 03:28:00;;;;;;;6.82;4.15;;;1.60;92.20;;;;;;5037347;28;20111;-77
2023/01/23 03:30:25;;;;;;;8.10;3.75;;;1.60;92.10;;;;;;5041960;28;20040;-78
2023/01/23 03:32:51;;;;;;;6.22;3.75;;;1.60;92.10;;;;;;5034065;28;20124;-79
2023/01/23 03:35:17;;;;;;;6.32;4.18;;;1.60;92.20;;;;;;5033468;28;20128;-78
2023/01/23 03:37:43;;;;;;;8.65;3.63;;;1.60;92.10;;;;;;5036553;28;20041;-80
2023/01/23 03:43:15;;;;;;;6.97;4.30;;;1.60;92.20;;;;;;4999407;28;20553;-76
2023/01/23 03:45:40;;;;;;;7.30;4.00;;;1.60;92.10;;;;;;5039707;28;20148;-79
2023/01/23 03:48:06;;;;;;;5.82;3.70;;;1.70;92.20;;;;;;5036472;28;20106;-79
2023/01/23 03:50:31;;;;;;;5.68;3.75;;;1.70;92.20;;;;;;5038169;28;20099;-79
2023/01/23 03:52:57;;;;;;;5.80;3.75;;;1.70;92.20;;;;;;5037653;28;20182;-77
2023/01/23 03:55:22;;;;;;;6.43;4.10;;;1.60;92.20;;;;;;5031959;28;20090;-77
2023/01/23 03:57:48;;;;;;;5.00;3.78;;;1.60;92.20;;;;;;5039059;28;20090;-79
2023/01/23 04:00:15;;;;;;;6.47;3.75;;;1.60;92.20;;;;;;5037541;28;20033;-79
2023/01/23 04:02:41;;;;;;;7.35;4.10;;;1.70;92.20;;;;;;5035944;28;20041;-79
2023/01/23 04:05:06;;;;;;;7.22;3.35;;;1.70;92.20;;;;;;5039482;28;20036;-80
2023/01/23 04:07:32;;;;;;;6.22;3.65;;;1.70;92.20;;;;;;5033811;28;20033;-79
2023/01/23 04:09:57;;;;;;;6.78;4.03;;;1.70;92.20;;;;;;5036412;28;20078;-76
2023/01/23 04:12:23;;;;;;;7.70;3.47;;;1.60;92.20;;;;;;5035681;28;20136;-79
2023/01/23 04:14:48;;;;;;;7.07;4.07;;;1.70;92.20;;;;;;5039179;28;20036;-77
2023/01/23 04:17:14;;;;;;;6.57;3.83;;;1.60;92.20;;;;;;5037360;28;20045;-78
2023/01/23 04:19:39;;;;;;;5.38;3.60;;;1.70;92.20;;;;;;5040356;28;20032;-77
2023/01/23 04:22:05;;;;;;;6.70;3.53;;;1.70;92.20;;;;;;5016828;28;20458;-77
2023/01/23 04:24:31;;;;;;;6.65;3.65;;;1.60;92.20;;;;;;5032922;28;21726;-78
2023/01/23 04:26:56;;;;;;;6.43;3.42;;;1.70;92.20;;;;;;5040246;28;20519;-77
2023/01/23 04:29:22;;;;;;;4.75;3.25;;;1.70;92.20;;;;;;5036406;28;20044;-79
2023/01/23 04:31:47;;;;;;;13.27;8.00;;;1.70;92.20;;;;;;5038338;28;20083;-79
2023/01/23 04:34:13;;;;;;;13.45;4.95;;;1.70;92.20;;;;;;5035847;28;20117;-78
2023/01/23 04:36:38;;;;;;;5.03;3.20;;;1.70;92.20;;;;;;5040414;28;20127;-78
2023/01/23 04:39:04;;;;;;;5.97;3.92;;;1.70;92.20;;;;;;5037271;28;20032;-77
2023/01/23 04:41:30;;;;;;;9.05;4.93;;;1.70;92.20;;;;;;5033143;28;20111;-79
2023/01/23 04:43:56;;;;;;;7.88;4.18;;;1.70;92.20;;;;;;5037623;28;20037;-77
2023/01/23 04:46:41;;;;;;;6.82;3.33;;;1.60;92.20;;;;;;5035864;28;20025;-78
2023/01/23 04:49:07;;;;;;;6.97;3.65;;;1.70;92.20;;;;;;5033809;28;20712;-80
2023/01/23 04:51:32;;;;;;;8.43;3.60;;;1.70;92.20;;;;;;5034241;28;20033;-79
2023/01/23 04:53:58;;;;;;;6.75;3.67;;;1.70;92.20;;;;;;5030246;28;20041;-77
2023/01/23 04:56:24;;;;;;;14.45;6.82;;;1.60;92.20;;;;;;5036806;28;20041;-78
2023/01/23 04:58:52;;;;;;;8.32;4.68;;;1.70;92.20;;;;;;5015634;28;20337;-78
2023/01/23 05:01:21;;;;;;;74.95;34.63;;;1.70;92.20;;;;;;5032569;28;20028;-77
2023/01/23 05:03:50;;;;;;;12.48;7.13;;;1.70;92.20;;;;;;5018038;28;20029;-77
2023/01/23 05:06:16;;;;;;;6.85;4.57;;;1.70;92.20;;;;;;5036718;28;20031;-80
2023/01/23 05:08:41;;;;;;;5.78;4.03;;;1.70;92.20;;;;;;5036386;28;20033;-78
2023/01/23 05:11:07;;;;;;;5.57;3.38;;;1.70;92.20;;;;;;5033053;28;20041;-79
2023/01/23 05:13:32;;;;;;;6.25;3.53;;;1.70;92.20;;;;;;5034886;28;20037;-79
2023/01/23 05:15:58;;;;;;;5.43;3.05;;;1.70;92.20;;;;;;5037955;28;20427;-78
2023/01/23 05:18:23;;;;;;;4.82;3.38;;;1.70;92.20;;;;;;5034856;28;20550;-79
2023/01/23 05:20:49;;;;;;;5.03;3.35;;;1.70;92.20;;;;;;5035478;28;20049;-78
2023/01/23 05:23:14;;;;;;;4.03;3.05;;;1.70;92.20;;;;;;5034519;28;20107;-78
2023/01/23 05:25:40;;;;;;;4.85;2.97;;;1.70;92.20;;;;;;5041857;28;20052;-78
2023/01/23 05:28:05;;;;;;;5.38;3.30;;;1.70;92.20;;;;;;5021836;28;20765;-78
2023/01/23 05:30:31;;;;;;;7.13;3.90;;;1.70;92.20;;;;;;5033240;28;20069;-75
2023/01/23 05:32:56;;;;;;;4.43;3.13;;;1.70;92.20;;;;;;5033885;28;20136;-79
2023/01/23 05:35:22;;;;;;;5.50;3.47;;;1.70;92.20;;;;;;5032600;28;20563;-78
2023/01/23 05:37:49;;;;;;;5.72;3.28;;;1.80;92.20;;;;;;5035031;28;20064;-78
2023/01/23 05:40:15;;;;;;;5.93;3.15;;;1.70;92.20;;;;;;5039307;28;20033;-77
2023/01/23 05:42:40;;;;;;;4.70;3.08;;;1.70;92.20;;;;;;5040162;28;20799;-78
2023/01/23 05:45:06;;;;;;;5.28;3.53;;;1.70;92.20;;;;;;5036404;28;20033;-78
2023/01/23 05:47:32;;;;;;;5.28;4.13;;;1.70;92.10;;;;;;5036262;28;20041;-76
2023/01/23 05:49:57;;;;;;;4.93;2.95;;;1.70;92.10;;;;;;5039538;28;20127;-78
2023/01/23 05:52:23;;;;;;;6.05;3.63;;;1.70;92.20;;;;;;5029510;28;20132;-78
2023/01/23 05:54:49;;;;;;;4.85;3.20;;;1.70;92.20;;;;;;5042300;28;20143;-78
2023/01/23 05:57:15;;;;;;;5.10;3.20;;;1.70;92.20;;;;;;5022357;28;20033;-75
2023/01/23 05:59:40;;;;;;;4.88;3.20;;;1.70;92.10;;;;;;5043792;28;20178;-76
2023/01/23 06:02:06;;;;;;;4.38;3.05;;;1.70;92.10;;;;;;5040018;28;20045;-77
2023/01/23 06:04:31;;;;;;;6.68;3.90;;;1.70;92.10;;;;;;5041898;28;20092;-79
2023/01/23 06:06:57;;;;;;;6.60;4.20;;;1.70;92.10;;;;;;5040499;28;20064;-79
2023/01/23 06:09:22;;;;;;;5.55;3.78;;;1.70;92.10;;;;;;5042369;28;20071;-77
2023/01/23 06:11:48;;;;;;;4.35;3.33;;;1.70;92.10;;;;;;5044904;28;20040;-77
2023/01/23 06:14:14;;;;;;;7.88;3.85;;;1.80;92.20;;;;;;5039906;28;20044;-78
2023/01/23 06:16:39;;;;;;;5.15;3.17;;;1.80;92.20;;;;;;5045749;28;20051;-79
2023/01/23 06:19:04;;;;;;;4.50;2.95;;;1.80;92.10;;;;;;5041603;28;20030;-78
2023/01/23 06:21:30;;;;;;;5.25;3.10;;;1.70;92.10;;;;;;5038862;28;20045;-79
2023/01/23 06:23:58;;;;;;;7.43;3.75;;;1.80;92.10;;;;;;5041982;28;20053;-80
2023/01/23 06:26:23;;;;;;;8.38;5.20;;;1.70;92.10;;;;;;5038343;28;20060;-77
2023/01/23 06:28:49;;;;;;;9.82;4.97;;;1.70;92.10;;;;;;5040519;28;20069;-77
2023/01/23 06:31:14;;;;;;;21.83;9.70;;;1.70;92.10;;;;;;5035419;28;20079;-79
2023/01/23 06:33:40;;;;;;;19.15;7.25;;;1.70;92.10;;;;;;5043257;28;20033;-78
2023/01/23 06:36:06;;;;;;;8.95;5.30;;;1.70;92.10;;;;;;5037994;28;20049;-78
2023/01/23 06:38:32;;;;;;;9.65;5.25;;;1.70;92.10;;;;;;5043937;28;20033;-77
2023/01/23 06:40:57;;;;;;;8.25;4.35;;;1.70;92.10;;;;;;5040752;28;20158;-78
2023/01/23 06:43:23;;;;;;;7.90;4.18;;;1.70;92.10;;;;;;5035071;28;20039;-80
2023/01/23 06:45:49;;;;;;;7.28;4.38;;;1.70;92.10;;;;;;5041636;28;20088;-79
2023/01/23 06:48:14;;;;;;;10.45;4.78;;;1.80;92.10;;;;;;5038039;28;20489;-80
2023/01/23 06:50:40;;;;;;;9.52;4.35;;;1.70;92.10;;;;;;5040995;28;20063;-79
2023/01/23 06:53:06;;;;;;;7.65;4.57;;;1.80;92.10;;;;;;5041078;28;20072;-78
2023/01/23 06:55:32;;;;;;;4.95;3.63;;;1.80;92.10;;;;;;5038771;28;20068;-80
2023/01/23 06:57:57;;;;;;;7.57;4.45;;;1.70;92.10;;;;;;5040787;28;20577;-80
2023/01/23 07:00:23;;;;;;;7.85;4.70;;;1.80;92.10;;;;;;5039459;28;20116;-80
2023/01/23 07:02:48;;;;;;;6.47;4.15;;;1.70;92.10;;;;;;5037930;28;20048;-78
2023/01/23 07:05:14;;;;;;;6.55;4.80;;;1.80;92.10;;;;;;5033058;28;20045;-80
2023/01/23 07:07:40;;;;;;;8.25;5.18;;;1.80;92.10;;;;;;5032187;28;20041;-79
2023/01/23 07:10:06;;;;;;;7.00;4.95;;;1.80;92.10;;;;;;5038219;28;20048;-79
2023/01/23 07:12:31;;;;;;;8.80;4.57;;;1.80;92.10;;;;;;5038803;28;20098;-78
2023/01/23 07:14:57;;;;;;;7.78;4.13;;;1.80;92.10;;;;;;5042633;28;20041;-79
2023/01/23 07:17:22;;;;;;;7.40;4.47;;;1.80;92.10;;;;;;5036057;28;20105;-80
2023/01/23 07:19:48;;;;;;;6.90;5.00;;;1.80;92.10;;;;;;5040392;28;20036;-80
2023/01/23 07:22:17;;;;;;;7.15;4.53;;;1.80;92.10;;;;;;5036713;28;20518;-81
2023/01/23 07:24:42;;;;;;;8.60;4.90;;;1.80;92.00;;;;;;5038235;28;20045;-80
2023/01/23 07:27:08;;;;;;;9.15;5.05;;;1.80;92.00;;;;;;5038550;28;20060;-81
2023/01/23 07:29:33;;;;;;;8.32;5.47;;;1.80;92.00;;;;;;5037130;28;20033;-78
2023/01/23 07:32:00;;;;;;;11.07;5.95;;;1.80;92.00;;;;;;5042459;28;20037;-78
2023/01/23 07:34:25;;;;;;;14.82;8.25;;;1.80;92.00;;;;;;5038037;28;20033;-79
2023/01/23 07:36:51;;;;;;;9.02;6.03;;;1.80;92.00;;;;;;5040145;28;20514;-79
2023/01/23 07:39:16;;;;;;;7.75;4.95;;;1.80;92.00;;;;;;5038948;28;20049;-79
2023/01/23 07:41:42;;;;;;;7.97;4.93;;;1.80;92.00;;;;;;5044114;28;20116;-79
2023/01/23 07:44:08;;;;;;;8.30;5.13;;;1.80;92.00;;;;;;5037605;28;20100;-77
2023/01/23 07:46:33;;;;;;;12.98;7.10;;;1.80;92.00;;;;;;5041071;28;20037;-77
2023/01/23 07:48:59;;;;;;;7.82;4.93;;;1.80;92.00;;;;;;5034853;28;20036;-80
2023/01/23 07:51:24;;;;;;;7.40;4.90;;;1.80;92.00;;;;;;5040092;28;20037;-77
2023/01/23 07:53:50;;;;;;;7.60;4.20;;;1.80;91.90;;;;;;5038348;28;20040;-79
2023/01/23 07:56:15;;;;;;;7.28;4.72;;;1.90;91.90;;;;;;5038369;28;21248;-78
2023/01/23 07:58:41;;;;;;;7.22;4.60;;;1.90;91.90;;;;;;5042990;28;20057;-79
2023/01/23 08:01:08;;;;;;;6.47;4.93;;;1.90;91.90;;;;;;5039667;28;20137;-76
2023/01/23 08:03:34;;;;;;;8.65;5.72;;;1.90;91.90;;;;;;5042454;28;20063;-77
2023/01/23 08:05:59;;;;;;;9.65;6.15;;;1.90;91.90;;;;;;5037475;28;20092;-77
2023/01/23 08:08:25;;;;;;;9.45;6.05;;;1.90;91.90;;;;;;5036974;28;20108;-78
2023/01/23 08:10:50;;;;;;;9.63;5.72;;;1.90;91.80;;;;;;5039498;28;20420;-77
2023/01/23 08:13:16;;;;;;;12.73;7.07;;;1.90;91.80;;;;;;5038699;28;20514;-78
2023/01/23 08:15:41;;;;;;;8.48;5.40;;;1.90;91.80;;;;;;5040705;28;20053;-76
2023/01/23 08:18:07;;;;;;;8.25;4.57;;;1.90;91.80;;;;;;5034773;28;20520;-76
2023/01/23 08:20:32;;;;;;;7.30;4.25;;;1.90;91.80;;;;;;5037719;28;20526;-77
2023/01/23 08:23:00;;;;;;;8.25;4.88;;;2.00;91.80;;;;;;5023810;28;20060;-76
2023/01/23 08:25:25;;;;;;;12.45;7.57;;;2.00;91.80;;;;;;5039868;28;20045;-77
2023/01/23 08:27:51;;;;;;;69.22;36.83;;;2.00;91.80;;;;;;5037726;28;20052;-78
2023/01/23 08:30:16;;;;;;;9.68;6.78;;;2.00;91.80;;;;;;5037052;28;20052;-77
2023/01/23 08:32:42;;;;;;;7.88;5.15;;;2.00;91.80;;;;;;5041126;28;20234;-80
2023/01/23 08:35:08;;;;;;;6.47;4.25;;;2.00;91.70;;;;;;5038931;28;20132;-77
2023/01/23 08:37:33;;;;;;;7.35;5.28;;;2.00;91.70;;;;;;5042448;28;20060;-78
2023/01/23 08:39:59;;;;;;;9.48;4.82;;;2.00;91.70;;;;;;5043969;28;20715;-77
2023/01/23 08:42:25;;;;;;;8.95;5.30;;;2.00;91.70;;;;;;5042770;28;20044;-78
2023/01/23 08:44:50;;;;;;;7.85;4.78;;;2.10;91.70;;;;;;5043643;28;20048;-79
2023/01/23 08:47:16;;;;;;;8.25;5.05;;;2.10;91.70;;;;;;5038766;28;20186;-78
2023/01/23 08:49:41;;;;;;;9.00;5.32;;;2.10;91.70;;;;;;5036388;28;20038;-78
2023/01/23 08:52:07;;;;;;;6.38;4.50;;;2.10;91.70;;;;;;5036315;28;20059;-78
2023/01/23 08:54:32;;;;;;;9.77;5.68;;;2.10;91.70;;;;;;5032345;28;20377;-76
2023/01/23 08:56:58;;;;;;;9.10;5.65;;;2.10;91.70;;;;;;5037328;28;20048;-79
2023/01/23 08:59:24;;;;;;;7.90;4.78;;;2.10;91.70;;;;;;5034516;28;20045;-79
2023/01/23 09:01:50;;;;;;;15.18;5.93;;;2.20;91.70;;;;;;5037175;28;20056;-81
2023/01/23 09:04:16;;;;;;;6.20;4.47;;;2.20;91.70;;;;;;5032576;28;20044;-78
2023/01/23 09:06:41;;;;;;;8.80;4.90;;;2.20;91.60;;;;;;5036771;28;20029;-79
2023/01/23 09:09:07;;;;;;;7.53;4.50;;;2.20;91.60;;;;;;5032988;28;20037;-77
2023/01/23 09:11:32;;;;;;;8.77;4.55;;;2.20;91.60;;;;;;5036596;28;20108;-77
2023/01/23 09:13:58;;;;;;;7.50;4.75;;;2.20;91.60;;;;;;5039142;28;20507;-78
2023/01/23 09:16:23;;;;;;;7.70;4.85;;;2.20;91.60;;;;;;4992814;28;1210057;-78
2023/01/23 09:18:49;;;;;;;8.95;4.40;;;2.30;91.60;;;;;;5039780;28;20225;-77
2023/01/23 09:21:15;;;;;;;7.80;4.70;;;2.30;91.60;;;;;;5018981;28;20075;-78
2023/01/23 09:23:41;;;;;;;6.63;4.55;;;2.30;91.60;;;;;;5037828;28;20021;-78
2023/01/23 09:26:08;;;;;;;10.23;5.22;;;2.30;91.60;;;;;;5035911;28;20095;-80
2023/01/23 09:28:37;;;;;;;10.30;5.25;;;2.30;91.60;;;;;;5033922;28;20786;-78
2023/01/23 09:31:06;;;;;;;8.40;4.57;;;2.30;91.60;;;;;;5038403;28;20041;-76
2023/01/23 09:33:34;;;;;;;7.35;4.55;;;2.40;91.60;;;;;;5036347;28;20029;-78
2023/01/23 09:36:00;;;;;;;7.38;4.38;;;2.40;91.50;;;;;;5035867;28;20037;-76
2023/01/23 09:38:26;;;;;;;6.43;4.55;;;2.40;91.50;;;;;;5037917;28;20040;-77
2023/01/23 09:40:56;;;;;;;7.30;4.57;;;2.40;91.50;;;;;;5035459;28;20045;-77
2023/01/23 09:43:27;;;;;;;6.30;4.20;;;2.40;91.50;;;;;;5033929;28;20037;-80
2023/01/23 09:46:14;;;;;;;5.90;4.10;;;2.40;91.40;;;;;;5037179;28;20562;-81
2023/01/23 09:48:46;;;;;;;6.47;4.22;;;2.40;91.40;;;;;;5037769;28;20037;-79
2023/01/23 09:51:29;;;;;;;9.45;5.53;;;2.40;91.40;;;;;;5022030;28;20036;-79
2023/01/23 09:54:00;;;;;;;6.35;4.28;;;2.40;91.40;;;;;;5028794;28;20112;-77
2023/01/23 09:56:35;;;;;;;6.40;4.43;;;2.40;91.40;;;;;;5033883;28;20103;-77
2023/01/23 09:59:16;;;;;;;7.55;4.45;;;2.50;91.40;;;;;;5028270;28;20052;-78
2023/01/23 10:01:42;;;;;;;;;;;2.50;91.40;;;;;;5039760;28;20041;-78
2023/01/23 10:04:10;;;;;;;76.72;36.90;;;2.50;91.40;;;;;;5033039;28;20432;-78
2023/01/23 10:06:49;;;;;;;11.88;7.13;;;2.50;91.40;;;;;;5036491;28;20179;-78
2023/01/23 10:09:38;;;;;;;18.90;11.38;;;2.60;91.40;;;;;;5041352;28;20037;-78
2023/01/23 10:12:05;;;;;;;8.75;5.35;;;2.60;91.40;;;;;;5033264;28;20033;-80
2023/01/23 10:14:47;;;;;;;6.68;4.72;;;2.60;91.40;;;;;;5040350;28;20072;-78
2023/01/23 10:17:54;;;;;;;9.13;5.07;;;2.60;91.40;;;;;;5030028;28;20049;-79
2023/01/23 10:21:13;;;;;;;7.47;5.28;;;2.60;91.30;;;;;;5034609;28;20407;-78
2023/01/23 10:23:45;;;;;;;7.82;5.10;;;2.70;91.30;;;;;;4937367;28;20557;-77
2023/01/23 10:26:15;;;;;;;7.93;4.85;;;2.70;91.30;;;;;;4924396;28;20050;-80
2023/01/23 10:28:41;;;;;;;6.88;4.65;;;2.70;91.30;;;;;;4914621;29;20768;-78
2023/01/23 10:31:45;;;;;;;8.68;5.13;;;2.70;91.30;;;;;;4908852;28;20032;-78
2023/01/23 10:34:40;;;;;;;10.00;4.97;;;2.70;91.20;;;;;;4924379;28;20035;-78
2023/01/23 10:37:28;;;;;;;11.40;7.32;;;2.80;91.30;;;;;;4926589;28;20043;-78
2023/01/23 10:40:06;;;;;;;9.48;5.60;;;2.80;91.20;;;;;;4943975;28;20046;-77
2023/01/23 10:42:32;;;;;;;8.25;4.80;;;2.80;91.30;;;;;;4928255;28;20049;-78
2023/01/23 10:44:57;;;;;;;8.90;5.32;;;2.80;91.20;;;;;;4947706;28;20047;-76
2023/01/23 10:47:43;;;;;;;9.57;5.20;;;2.80;91.20;;;;;;4940802;28;20053;-77
2023/01/23 10:50:09;;;;;;;9.90;5.43;;;2.90;91.20;;;;;;4936815;28;20141;-76
2023/01/23 10:52:35;;;;;;;16.77;11.95;;;2.90;91.20;;;;;;4936065;28;20130;-77
2023/01/23 10:55:05;;;;;;;7.78;4.50;;;2.90;91.20;;;;;;4937885;28;21353;-79
2023/01/23 10:57:47;;;;;;;11.85;7.10;;;2.90;91.10;;;;;;4981581;28;20037;-78
2023/01/23 11:00:13;;;;;;;18.77;12.18;;;2.90;91.10;;;;;;5039950;28;20052;-77
2023/01/23 11:02:39;;;;;;;13.02;8.45;;;2.90;91.10;;;;;;5042661;28;20617;-78
2023/01/23 11:05:35;;;;;;;15.15;8.85;;;2.90;91.10;;;;;;5040516;28;20089;-78
2023/01/23 11:08:00;;;;;;;8.98;5.55;;;3.00;91.10;;;;;;5042018;28;20041;-78
2023/01/23 11:10:26;;;;;;;9.80;5.70;;;3.00;91.50;;;;;;5042131;28;20025;-78
2023/01/23 11:12:53;;;;;;;10.02;6.20;;;3.00;91.10;;;;;;5044571;28;20047;-77
2023/01/23 11:15:20;;;;;;;8.48;5.55;;;3.00;91.10;;;;;;5033836;28;20045;-79
2023/01/23 11:17:46;;;;;;;7.53;4.85;;;3.00;91.10;;;;;;5042161;28;20036;-79
2023/01/23 11:20:23;;;;;;;113.80;51.13;;;3.10;91.10;;;;;;5040727;28;20067;-78
2023/01/23 11:23:16;;;;;;;17.40;11.23;;;3.10;91.00;;;;;;5034718;28;20064;-74
2023/01/23 11:25:46;;;;;;;9.68;6.80;;;3.20;91.00;;;;;;5027782;28;20055;-78
2023/01/23 11:28:34;;;;;;;9.77;5.60;;;3.20;91.00;;;;;;5040915;28;20047;-76
2023/01/23 11:31:13;;;;;;;15.68;8.10;;;3.30;91.00;;;;;;5039534;28;20038;-77
2023/01/23 11:33:51;;;;;;;10.93;7.05;;;3.40;91.00;;;;;;5053231;28;20639;-80
2023/01/23 11:36:17;;;;;;;12.23;8.18;;;3.50;90.90;;;;;;5034157;28;20068;-78
2023/01/23 11:38:45;;;;;;;14.52;11.05;;;3.50;91.00;;;;;;5038944;28;20749;-79
2023/01/23 11:41:11;;;;;;;8.95;5.45;;;3.70;91.00;;;;;;5038825;28;20889;-79
2023/01/23 11:43:37;;;;;;;10.45;5.75;;;3.80;91.00;;;;;;5034949;28;20021;-77
2023/01/23 11:46:25;;;;;;;8.43;6.00;;;4.00;90.90;;;;;;5037577;28;20037;-79
2023/01/23 11:49:07;;;;;;;11.85;5.80;;;4.20;90.90;;;;;;5034354;28;20068;-79
2023/01/23 11:51:55;;;;;;;;;;;4.40;90.90;;;;;;5040434;28;20033;-78
2023/01/23 11:54:31;;;;;;;7.78;4.85;;;4.50;90.80;;;;;;5028771;28;20619;-78
2023/01/23 11:57:35;;;;;;;7.60;5.05;;;4.70;90.70;;;;;;5038123;28;20048;-79
2023/01/23 12:00:15;;;;;;;8.77;5.55;;;4.90;90.60;;;;;;5044809;28;20046;-77
2023/01/23 12:02:49;;;;;;;7.18;4.45;;;5.10;90.70;;;;;;5041365;28;20052;-79
2023/01/23 12:05:23;;;;;;;6.30;4.07;;;5.20;90.60;;;;;;5041909;28;20124;-78
2023/01/23 12:08:09;;;;;;;6.68;4.55;;;5.40;90.60;;;;;;5038083;28;20525;-78
2023/01/23 12:10:43;;;;;;;77.47;24.70;;;5.50;90.20;;;;;;5046897;28;20380;-77
2023/01/23 12:13:11;;;;;;;71.63;18.92;;;5.60;90.10;;;;;;5037710;28;20191;-76
2023/01/23 12:15:43;;;;;;;15.80;9.18;;;5.60;90.10;;;;;;5048260;28;20646;-80
2023/01/23 12:18:32;;;;;;;9.80;6.22;;;5.60;89.90;;;;;;5038992;28;20040;-76
2023/01/23 12:21:02;;;;;;;9.05;5.72;;;5.60;89.30;;;;;;5021659;28;20049;-77
2023/01/23 12:23:36;;;;;;;8.52;5.40;;;5.60;89.60;;;;;;5035300;28;20029;-74
2023/01/23 12:26:12;;;;;;;16.15;8.68;;;5.60;89.50;;;;;;5038188;28;20041;-78
2023/01/23 12:28:52;;;;;;;11.68;6.65;;;5.60;89.60;;;;;;5025886;28;20030;-79
2023/01/23 12:31:42;;;;;;;8.55;5.05;;;5.70;89.40;;;;;;5035520;28;20208;-80
2023/01/23 12:34:23;;;;;;;10.15;5.38;;;5.80;89.30;;;;;;5036121;28;20063;-77
2023/01/23 12:37:09;;;;;;;7.88;5.20;;;5.80;88.90;;;;;;5042356;28;20590;-79
2023/01/23 12:39:49;;;;;;;8.80;5.43;;;5.70;88.40;;;;;;5037333;28;20041;-78
2023/01/23 12:42:20;;;;;;;13.18;7.55;;;5.60;89.00;;;;;;5038358;28;20037;-78
2023/01/23 12:45:10;;;;;;;10.00;5.00;;;5.60;88.60;;;;;;5041942;28;20403;-79
2023/01/23 12:47:46;;;;;;;8.20;5.07;;;5.60;88.30;;;;;;5039137;28;20033;-79
2023/01/23 12:50:39;;;;;;;7.95;5.55;;;5.60;88.50;;;;;;5039878;28;20041;-78
2023/01/23 12:53:11;;;;;;;8.57;4.95;;;5.60;88.30;;;;;;5041133;28;20214;-80
2023/01/23 12:55:42;;;;;;;6.47;5.28;;;5.60;88.70;;;;;;5039177;28;20044;-77
2023/01/23 12:58:11;;;;;;;7.88;4.95;;;5.70;88.80;;;;;;5032377;28;20045;-77
2023/01/23 13:00:47;;;;;;;7.72;5.03;;;5.70;88.60;;;;;;5018812;28;20182;-79
2023/01/23 13:03:31;;;;;;;7.93;6.10;;;5.80;88.60;;;;;;5037792;28;20115;-77
2023/01/23 13:06:00;;;;;;;7.13;4.70;;;5.90;88.80;;;;;;5039082;28;20051;-77
2023/01/23 13:09:06;;;;;;;6.55;4.75;;;6.00;88.70;;;;;;5034476;28;20037;-80
2023/01/23 13:12:17;;;;;;;6.50;5.10;;;6.10;88.50;;;;;;4977962;28;20062;-79
2023/01/23 13:14:43;;;;;;;7.65;4.43;;;6.20;88.90;;;;;;4968518;28;20750;-78